Eight Mile, Alabama
Current Conditions -  °F | °C
As of 2:56 AM on Thursday 23 Oct 2014 (Local Time) from KMOB Reporting Station
Clear Clear  
Wind Chill: 46°   Ceiling: Unl
Heat Index: 48°   Visibility: 10mi
Dew Point: 45°   Wind: 5mph
Humidity: 89%   Direction: 20°NNE
Pressure: 30.07"   Gusts: NA
Location:  30.76°N, 88.13°W
Report Text: KMOB 230756Z AUTO 02004KT 10SM CLR 09/07 A3007 RMK AO2 SLP182 T00890072
Loading
Personal Weather Stations






























Interactive Weather Map
Tropical Storm Tracking
New forecast layout! Learn more

10-Day Weather Forecast

Advertisements
Track Severe Weather on mobile